createdAt,value
2022-07-31T00:00:24.235Z,18.36
2022-07-31T00:02:52.561Z,18.38
2022-07-31T00:05:20.575Z,18.36
2022-07-31T00:07:48.538Z,18.46
2022-07-31T00:10:16.717Z,18.39
2022-07-31T00:12:46.157Z,18.37
2022-07-31T00:15:14.115Z,18.19
2022-07-31T00:17:43.242Z,18.14
2022-07-31T00:20:14.144Z,18.28
2022-07-31T00:22:42.280Z,18.22
2022-07-31T00:25:11.121Z,18.00
2022-07-31T00:27:39.562Z,18.18
2022-07-31T00:30:12.528Z,18.16
2022-07-31T00:32:40.589Z,17.98
2022-07-31T00:35:09.859Z,17.74
2022-07-31T00:37:40.301Z,18.02
2022-07-31T00:40:11.772Z,17.99
2022-07-31T00:42:40.070Z,18.16
2022-07-31T00:45:10.800Z,18.04
2022-07-31T00:47:41.829Z,18.32
2022-07-31T00:50:10.829Z,18.23
2022-07-31T00:52:38.770Z,17.96
2022-07-31T00:55:07.762Z,17.93
2022-07-31T00:57:35.756Z,17.80
2022-07-31T01:00:03.822Z,17.77
2022-07-31T01:02:33.220Z,17.46
2022-07-31T01:05:01.139Z,17.44
2022-07-31T01:07:29.095Z,17.52
2022-07-31T01:09:57.378Z,17.77
2022-07-31T01:12:30.342Z,17.74
2022-07-31T01:14:59.699Z,17.79
2022-07-31T01:17:29.261Z,17.64
2022-07-31T01:19:59.337Z,17.71
2022-07-31T01:22:50.626Z,18.15
2022-07-31T01:25:29.898Z,18.36
2022-07-31T01:28:04.462Z,18.45
2022-07-31T01:30:36.914Z,18.33
2022-07-31T01:33:09.375Z,18.05
2022-07-31T01:35:42.486Z,18.23
2022-07-31T01:38:14.602Z,18.40
2022-07-31T01:40:45.561Z,18.44
2022-07-31T01:43:16.515Z,18.46
2022-07-31T01:45:49.002Z,18.35
2022-07-31T01:48:17.246Z,18.37
2022-07-31T01:50:46.706Z,18.36
2022-07-31T01:53:17.573Z,18.32
2022-07-31T01:55:56.708Z,18.33
2022-07-31T01:58:36.037Z,18.11
2022-07-31T02:01:08.289Z,18.09
2022-07-31T02:03:42.690Z,18.19
2022-07-31T02:06:13.723Z,18.22
2022-07-31T02:08:41.950Z,18.13
2022-07-31T02:11:10.002Z,17.67
2022-07-31T02:13:38.906Z,17.34
2022-07-31T02:16:08.333Z,16.84
2022-07-31T02:18:37.175Z,16.81
2022-07-31T02:21:05.200Z,16.70
2022-07-31T02:23:33.228Z,16.68
2022-07-31T02:26:02.022Z,16.54
2022-07-31T02:28:30.721Z,17.19
2022-07-31T02:30:59.214Z,17.52
2022-07-31T02:33:29.051Z,17.67
2022-07-31T02:35:57.782Z,17.97
2022-07-31T02:38:28.017Z,17.98
2022-07-31T02:40:59.687Z,17.86
2022-07-31T02:43:27.909Z,17.48
2022-07-31T02:45:56.333Z,17.51
2022-07-31T02:48:25.271Z,17.23
2022-07-31T02:50:54.867Z,16.54
2022-07-31T02:53:22.841Z,16.12
2022-07-31T02:55:51.361Z,16.17
2022-07-31T02:58:19.563Z,16.46
2022-07-31T03:00:47.635Z,16.53
2022-07-31T03:03:15.698Z,16.47
2022-07-31T03:05:43.612Z,16.86
2022-07-31T03:08:12.922Z,17.03
2022-07-31T03:10:40.837Z,17.22
2022-07-31T03:13:08.965Z,17.16
2022-07-31T03:15:37.775Z,17.20
2022-07-31T03:18:11.294Z,17.30
2022-07-31T03:20:40.734Z,17.17
2022-07-31T03:23:08.810Z,17.05
2022-07-31T03:25:38.262Z,16.98
2022-07-31T03:28:06.215Z,16.84
2022-07-31T03:30:34.151Z,16.57
2022-07-31T03:33:03.635Z,15.92
2022-07-31T03:35:31.902Z,15.82
2022-07-31T03:37:59.869Z,15.82
2022-07-31T03:40:27.831Z,15.66
2022-07-31T03:42:57.808Z,15.66
2022-07-31T03:45:25.973Z,15.58
2022-07-31T03:47:54.106Z,15.53
2022-07-31T03:50:22.582Z,15.65
2022-07-31T03:52:51.129Z,15.73
2022-07-31T03:55:19.051Z,15.72
2022-07-31T03:57:47.648Z,15.83
2022-07-31T04:00:20.581Z,16.28
2022-07-31T04:02:48.658Z,16.81
2022-07-31T04:05:16.646Z,17.06
2022-07-31T04:07:44.606Z,17.14
2022-07-31T04:10:12.538Z,17.10
2022-07-31T04:12:40.522Z,16.90
2022-07-31T04:15:09.001Z,16.56
2022-07-31T04:17:38.738Z,16.56
2022-07-31T04:20:08.501Z,16.87
2022-07-31T04:22:36.551Z,16.80
2022-07-31T04:25:05.302Z,16.47
2022-07-31T04:27:33.486Z,16.52
2022-07-31T04:30:01.432Z,16.53
2022-07-31T04:32:31.009Z,16.73
2022-07-31T04:35:00.350Z,16.84
2022-07-31T04:37:28.286Z,17.02
2022-07-31T04:39:56.363Z,17.19
2022-07-31T04:42:24.382Z,17.35
2022-07-31T04:44:52.406Z,17.46
2022-07-31T04:47:22.359Z,17.48
2022-07-31T04:49:50.312Z,17.43
2022-07-31T04:52:19.822Z,17.62
2022-07-31T04:54:47.823Z,17.72
2022-07-31T04:57:19.862Z,17.88
2022-07-31T05:00:00.302Z,17.99
2022-07-31T05:02:29.066Z,17.94
2022-07-31T05:04:57.605Z,17.90
2022-07-31T05:07:28.890Z,17.72
2022-07-31T05:09:57.410Z,17.79
2022-07-31T05:12:25.460Z,17.82
2022-07-31T05:14:53.547Z,17.46
2022-07-31T05:17:21.666Z,17.54
2022-07-31T05:19:49.690Z,17.64
2022-07-31T05:22:17.602Z,17.74
2022-07-31T05:24:48.267Z,17.79
2022-07-31T05:27:16.306Z,17.63
2022-07-31T05:29:44.242Z,17.58
2022-07-31T05:32:12.606Z,17.57
2022-07-31T05:34:40.753Z,17.53
2022-07-31T05:37:08.726Z,17.71
2022-07-31T05:39:36.921Z,17.77
2022-07-31T05:42:07.859Z,18.08
2022-07-31T05:44:35.882Z,17.96
2022-07-31T05:47:03.824Z,17.74
2022-07-31T05:49:31.788Z,17.82
2022-07-31T05:51:59.783Z,17.86
2022-07-31T05:54:27.838Z,17.68
2022-07-31T05:56:55.820Z,17.80
2022-07-31T05:59:25.118Z,17.90
2022-07-31T06:01:53.197Z,17.86
2022-07-31T06:04:21.170Z,18.03
2022-07-31T06:06:49.121Z,18.03
2022-07-31T06:09:17.039Z,18.06
2022-07-31T06:11:44.994Z,18.24
2022-07-31T06:14:13.163Z,18.26
2022-07-31T06:16:42.462Z,18.46
2022-07-31T06:19:10.390Z,18.40
2022-07-31T06:21:38.366Z,18.50
2022-07-31T06:24:07.198Z,18.41
2022-07-31T06:26:37.047Z,18.60
2022-07-31T06:29:05.288Z,18.50
2022-07-31T06:31:33.227Z,18.32
2022-07-31T06:34:02.573Z,18.42
2022-07-31T06:36:30.491Z,18.37
2022-07-31T06:38:58.451Z,18.64
2022-07-31T06:41:43.650Z,18.62
2022-07-31T06:44:11.646Z,18.63
2022-07-31T06:46:39.629Z,18.82
2022-07-31T06:49:18.944Z,18.79
2022-07-31T06:51:46.977Z,18.77
2022-07-31T06:54:14.892Z,18.86
2022-07-31T06:56:42.827Z,18.92
2022-07-31T06:59:10.870Z,18.78
2022-07-31T07:01:39.015Z,19.09
2022-07-31T07:04:07.089Z,19.35
2022-07-31T07:06:36.485Z,19.43
2022-07-31T07:09:04.656Z,19.42
2022-07-31T07:11:32.661Z,19.77
2022-07-31T07:14:00.718Z,19.52
2022-07-31T07:16:28.897Z,19.17
2022-07-31T07:18:58.114Z,19.35
2022-07-31T07:21:26.354Z,19.32
2022-07-31T07:23:55.641Z,19.45
2022-07-31T07:26:23.694Z,19.63
2022-07-31T07:28:51.943Z,19.83
2022-07-31T07:31:19.869Z,19.82
2022-07-31T07:33:48.914Z,19.93
2022-07-31T07:36:22.484Z,19.96
2022-07-31T07:38:53.701Z,20.09
2022-07-31T07:41:25.189Z,20.29
2022-07-31T07:43:53.450Z,20.33
2022-07-31T07:46:22.208Z,20.40
2022-07-31T07:48:51.975Z,20.63
2022-07-31T07:51:20.839Z,20.59
2022-07-31T07:53:48.896Z,20.70
2022-07-31T07:56:17.176Z,20.66
2022-07-31T07:58:46.573Z,20.86
2022-07-31T08:01:14.878Z,20.96
2022-07-31T08:03:50.377Z,20.68
2022-07-31T08:06:20.292Z,20.96
2022-07-31T08:08:48.303Z,21.44
2022-07-31T08:11:17.088Z,21.05
2022-07-31T08:13:50.574Z,20.94
2022-07-31T08:16:19.921Z,21.37
2022-07-31T08:18:47.993Z,21.13
2022-07-31T08:21:15.917Z,21.05
2022-07-31T08:23:43.868Z,21.00
2022-07-31T08:26:13.127Z,21.11
2022-07-31T08:28:50.709Z,21.30
2022-07-31T08:31:20.717Z,21.38
2022-07-31T08:33:48.724Z,21.32
2022-07-31T08:36:16.645Z,21.14
2022-07-31T08:38:44.584Z,21.73
2022-07-31T08:41:14.032Z,21.69
2022-07-31T08:44:03.355Z,21.62
2022-07-31T08:46:33.170Z,21.94
2022-07-31T08:49:03.857Z,21.65
2022-07-31T08:51:34.790Z,21.79
2022-07-31T08:54:20.865Z,21.96
2022-07-31T08:56:52.644Z,21.83
2022-07-31T08:59:22.022Z,22.48
2022-07-31T09:01:51.533Z,22.29
2022-07-31T09:04:19.459Z,22.75
2022-07-31T09:06:47.414Z,22.82
2022-07-31T09:09:16.693Z,22.53
2022-07-31T09:11:48.293Z,22.67
2022-07-31T09:14:25.878Z,22.80
2022-07-31T09:16:55.639Z,22.93
2022-07-31T09:19:51.892Z,22.43
2022-07-31T09:22:21.689Z,23.01
2022-07-31T09:24:49.717Z,22.92
2022-07-31T09:27:18.458Z,23.42
2022-07-31T09:29:49.272Z,22.66
2022-07-31T09:32:19.742Z,22.83
2022-07-31T09:34:48.650Z,23.09
2022-07-31T09:37:18.495Z,23.55
2022-07-31T09:39:52.344Z,22.82
2022-07-31T09:42:21.312Z,23.13
2022-07-31T09:44:50.149Z,23.47
2022-07-31T09:47:23.418Z,23.84
2022-07-31T09:49:55.737Z,23.81
2022-07-31T09:52:24.238Z,24.08
2022-07-31T09:55:02.078Z,24.11
2022-07-31T09:57:30.488Z,23.89
2022-07-31T09:59:58.458Z,24.52
2022-07-31T10:02:28.718Z,24.14
2022-07-31T10:04:58.187Z,24.04
2022-07-31T10:07:32.348Z,24.27
2022-07-31T10:10:01.998Z,23.97
2022-07-31T10:12:30.854Z,24.49
2022-07-31T10:15:03.244Z,24.36
2022-07-31T10:17:36.177Z,24.18
2022-07-31T10:20:06.567Z,24.23
2022-07-31T10:22:37.060Z,24.50
2022-07-31T10:25:05.272Z,24.89
2022-07-31T10:27:33.750Z,24.80
2022-07-31T10:30:09.085Z,24.59
2022-07-31T10:32:38.463Z,25.18
2022-07-31T10:35:07.624Z,24.92
2022-07-31T10:37:41.215Z,25.27
2022-07-31T10:40:15.255Z,24.85
2022-07-31T10:42:57.096Z,25.15
2022-07-31T10:45:25.361Z,25.57
2022-07-31T10:47:59.288Z,25.56
2022-07-31T10:50:29.635Z,24.92
2022-07-31T10:53:08.659Z,25.11
2022-07-31T10:55:36.734Z,25.51
2022-07-31T10:58:09.666Z,25.23
2022-07-31T11:00:38.016Z,25.42
2022-07-31T11:03:21.028Z,25.62
2022-07-31T11:06:02.108Z,25.61
2022-07-31T11:08:42.042Z,26.30
2022-07-31T11:11:10.641Z,26.23
2022-07-31T11:13:49.247Z,25.59
2022-07-31T11:16:17.470Z,25.60
2022-07-31T11:18:57.972Z,25.54
2022-07-31T11:21:39.974Z,25.63
2022-07-31T11:24:15.748Z,25.96
2022-07-31T11:26:49.626Z,25.39
2022-07-31T11:30:00.451Z,25.48
2022-07-31T11:32:17.050Z,25.86
2022-07-31T11:34:55.771Z,26.09
2022-07-31T11:37:24.876Z,25.71
2022-07-31T11:39:53.939Z,26.56
2022-07-31T11:42:26.479Z,26.23
2022-07-31T11:45:10.761Z,25.59
2022-07-31T11:48:12.842Z,25.68
2022-07-31T11:50:30.990Z,26.30
2022-07-31T11:53:04.292Z,26.96
2022-07-31T11:55:32.462Z,27.08
2022-07-31T11:58:00.374Z,27.20
2022-07-31T12:00:30.202Z,26.89
2022-07-31T12:02:58.792Z,26.36
2022-07-31T12:05:39.130Z,26.48
2022-07-31T12:08:07.984Z,27.09
2022-07-31T12:10:36.188Z,27.04
2022-07-31T12:13:04.196Z,26.64
2022-07-31T12:15:32.302Z,26.31
2022-07-31T12:18:05.240Z,26.39
2022-07-31T12:20:36.971Z,26.05
2022-07-31T12:23:07.055Z,26.35
2022-07-31T12:25:55.159Z,26.39
2022-07-31T12:28:23.153Z,25.44
2022-07-31T12:30:59.697Z,25.72
2022-07-31T12:33:28.574Z,25.05
2022-07-31T12:35:57.915Z,25.46
2022-07-31T12:38:45.263Z,25.55
2022-07-31T12:41:14.984Z,25.72
2022-07-31T12:43:51.574Z,25.35
2022-07-31T12:46:24.165Z,25.55
2022-07-31T12:48:52.309Z,25.44
2022-07-31T12:51:45.207Z,25.43
2022-07-31T12:54:10.239Z,25.19
2022-07-31T12:56:39.500Z,26.11
2022-07-31T12:59:08.073Z,25.31
2022-07-31T13:01:36.897Z,25.45
2022-07-31T13:04:08.019Z,25.38
2022-07-31T13:06:51.382Z,24.96
2022-07-31T13:09:19.737Z,25.12
2022-07-31T13:11:48.453Z,25.27
2022-07-31T13:14:17.083Z,25.82
2022-07-31T13:16:45.209Z,25.32
2022-07-31T13:19:14.056Z,25.09
2022-07-31T13:21:49.260Z,25.36
2022-07-31T13:24:19.844Z,25.00
2022-07-31T13:26:47.960Z,24.88
2022-07-31T13:29:16.016Z,24.80
2022-07-31T13:31:44.361Z,24.81
2022-07-31T13:34:13.252Z,24.95
2022-07-31T13:36:41.257Z,25.01
2022-07-31T13:39:09.385Z,24.89
2022-07-31T13:41:39.482Z,24.97
2022-07-31T13:44:08.154Z,24.96
2022-07-31T13:46:36.093Z,24.89
2022-07-31T13:49:08.413Z,24.87
2022-07-31T13:51:37.099Z,24.77
2022-07-31T13:54:05.261Z,25.12
2022-07-31T13:56:41.209Z,24.80
2022-07-31T13:59:14.256Z,24.74
2022-07-31T14:02:04.829Z,24.75
2022-07-31T14:04:32.941Z,24.61
2022-07-31T14:07:07.392Z,24.64
2022-07-31T14:09:36.088Z,24.50
2022-07-31T14:12:05.863Z,24.27
2022-07-31T14:14:35.443Z,24.15
2022-07-31T14:17:03.381Z,23.39
2022-07-31T14:19:43.824Z,23.82
2022-07-31T14:22:13.974Z,22.80
2022-07-31T14:24:49.849Z,23.78
2022-07-31T14:27:20.522Z,23.03
2022-07-31T14:29:50.024Z,22.77
2022-07-31T14:32:19.277Z,22.95
2022-07-31T14:34:47.295Z,23.21
2022-07-31T14:37:15.261Z,22.91
2022-07-31T14:39:43.352Z,23.10
2022-07-31T14:42:12.307Z,22.64
2022-07-31T14:44:42.272Z,22.04
2022-07-31T14:47:12.596Z,22.28
2022-07-31T14:50:06.713Z,22.05
2022-07-31T14:52:29.549Z,22.33
2022-07-31T14:54:59.066Z,21.73
2022-07-31T14:57:27.070Z,22.27
2022-07-31T14:59:55.664Z,22.41
2022-07-31T15:02:24.989Z,22.48
2022-07-31T15:04:53.479Z,22.45
2022-07-31T15:07:41.214Z,21.80
2022-07-31T15:10:11.574Z,22.15
2022-07-31T15:12:39.554Z,21.63
2022-07-31T15:15:08.806Z,21.90
2022-07-31T15:17:38.187Z,21.94
2022-07-31T15:20:06.902Z,22.09
2022-07-31T15:22:34.918Z,21.69
2022-07-31T15:25:02.883Z,22.04
2022-07-31T15:27:30.814Z,21.60
2022-07-31T15:30:00.465Z,21.44
2022-07-31T15:32:37.483Z,21.75
2022-07-31T15:35:07.073Z,21.63
2022-07-31T15:37:36.465Z,21.21
2022-07-31T15:40:06.401Z,21.08
2022-07-31T15:42:37.639Z,21.00
2022-07-31T15:45:06.598Z,21.12
2022-07-31T15:47:34.534Z,21.36
2022-07-31T15:50:04.009Z,21.56
2022-07-31T15:52:32.056Z,21.22
2022-07-31T15:55:00.107Z,21.41
2022-07-31T15:57:28.075Z,20.87
2022-07-31T15:59:56.185Z,20.62
2022-07-31T16:02:24.579Z,20.52
2022-07-31T16:04:54.842Z,20.88
2022-07-31T16:08:33.190Z,21.48
2022-07-31T16:10:18.432Z,20.81
2022-07-31T16:12:46.683Z,20.94
2022-07-31T16:15:15.281Z,20.77
2022-07-31T16:17:44.235Z,21.22
2022-07-31T16:20:20.890Z,20.98
2022-07-31T16:22:58.324Z,20.89
2022-07-31T16:25:27.243Z,20.21
2022-07-31T16:27:55.375Z,20.61
2022-07-31T16:30:26.253Z,20.83
2022-07-31T16:32:54.597Z,20.90
2022-07-31T16:35:22.701Z,20.49
2022-07-31T16:37:53.331Z,20.01
2022-07-31T16:40:29.383Z,20.20
2022-07-31T16:43:02.046Z,20.53
2022-07-31T16:45:31.028Z,20.45
2022-07-31T16:47:59.191Z,20.41
2022-07-31T16:50:27.489Z,20.03
2022-07-31T16:52:55.600Z,20.15
2022-07-31T16:56:01.119Z,19.86
2022-07-31T16:58:15.242Z,19.96
2022-07-31T17:00:43.328Z,19.73
2022-07-31T17:03:31.072Z,19.81
2022-07-31T17:05:59.255Z,20.25
2022-07-31T17:08:28.886Z,20.11
2022-07-31T17:10:58.261Z,19.41
2022-07-31T17:13:26.206Z,19.88
2022-07-31T17:15:54.147Z,19.58
2022-07-31T17:18:25.377Z,20.18
2022-07-31T17:20:55.931Z,19.81
2022-07-31T17:23:43.365Z,20.33
2022-07-31T17:26:20.995Z,19.35
2022-07-31T17:28:50.364Z,19.08
2022-07-31T17:31:18.430Z,19.23
2022-07-31T17:33:54.558Z,18.97
2022-07-31T17:36:29.000Z,18.58
2022-07-31T17:38:57.191Z,18.57
2022-07-31T17:41:26.867Z,18.62
2022-07-31T17:43:55.014Z,18.48
2022-07-31T17:46:28.365Z,18.60
2022-07-31T17:49:02.901Z,18.86
2022-07-31T17:51:30.892Z,19.47
2022-07-31T17:54:00.455Z,18.98
2022-07-31T17:56:30.074Z,18.92
2022-07-31T17:59:04.263Z,18.50
2022-07-31T18:01:33.165Z,18.85
2022-07-31T18:04:01.198Z,18.62
2022-07-31T18:06:29.246Z,18.82
2022-07-31T18:08:59.195Z,18.81
2022-07-31T18:11:27.250Z,18.76
2022-07-31T18:14:00.889Z,19.04
2022-07-31T18:16:31.457Z,19.03
2022-07-31T18:18:59.430Z,18.76
2022-07-31T18:21:27.402Z,18.57
2022-07-31T18:23:55.375Z,19.18
2022-07-31T18:26:23.632Z,19.04
2022-07-31T18:28:51.977Z,19.16
2022-07-31T18:31:31.798Z,19.18
2022-07-31T18:34:03.637Z,19.18
2022-07-31T18:36:31.685Z,18.96
2022-07-31T18:38:59.711Z,19.07
2022-07-31T18:41:27.800Z,18.88
2022-07-31T18:43:55.742Z,18.67
2022-07-31T18:46:25.716Z,18.64
2022-07-31T18:48:55.874Z,18.58
2022-07-31T18:51:24.944Z,18.40
2022-07-31T18:53:54.504Z,18.47
2022-07-31T18:56:23.371Z,18.68
2022-07-31T18:58:51.349Z,18.66
2022-07-31T19:01:19.456Z,18.64
2022-07-31T19:03:49.086Z,18.83
2022-07-31T19:06:17.374Z,18.56
2022-07-31T19:08:46.090Z,18.79
2022-07-31T19:11:14.053Z,18.63
2022-07-31T19:13:42.114Z,18.75
2022-07-31T19:16:10.148Z,18.65
2022-07-31T19:18:40.349Z,18.36
2022-07-31T19:21:23.086Z,18.36
2022-07-31T19:23:57.961Z,18.46
2022-07-31T19:26:25.965Z,18.32
2022-07-31T19:28:53.882Z,18.26
2022-07-31T19:31:22.070Z,18.42
2022-07-31T19:33:50.069Z,18.65
2022-07-31T19:36:20.038Z,18.54
2022-07-31T19:38:48.018Z,18.59
2022-07-31T19:41:16.065Z,18.65
2022-07-31T19:43:45.763Z,18.84
2022-07-31T19:46:13.761Z,18.66
2022-07-31T19:48:42.691Z,18.66
2022-07-31T19:51:10.892Z,18.37
2022-07-31T19:53:40.463Z,18.35
2022-07-31T19:56:08.837Z,18.45
2022-07-31T19:58:37.652Z,18.36
2022-07-31T20:01:06.782Z,18.38
2022-07-31T20:03:35.352Z,18.33
2022-07-31T20:06:03.727Z,18.27
2022-07-31T20:08:33.223Z,18.19
2022-07-31T20:11:04.519Z,18.27
2022-07-31T20:13:32.992Z,18.20
2022-07-31T20:16:01.486Z,18.23
2022-07-31T20:18:30.598Z,18.24
2022-07-31T20:21:00.894Z,18.18
2022-07-31T20:23:29.474Z,18.21
2022-07-31T20:25:57.520Z,18.22
2022-07-31T20:28:28.471Z,18.28
2022-07-31T20:30:56.511Z,18.38
2022-07-31T20:33:24.741Z,18.35
2022-07-31T20:35:52.700Z,18.37
2022-07-31T20:38:20.811Z,18.30
2022-07-31T20:40:53.689Z,18.34
2022-07-31T20:43:23.396Z,18.36
2022-07-31T20:45:53.084Z,18.37
2022-07-31T20:48:24.146Z,18.39
2022-07-31T20:50:53.009Z,18.42
2022-07-31T20:53:22.076Z,18.50
2022-07-31T20:55:50.628Z,18.50
2022-07-31T20:58:18.897Z,18.42
2022-07-31T21:00:47.632Z,18.64
2022-07-31T21:03:17.553Z,18.59
2022-07-31T21:05:45.664Z,18.77
2022-07-31T21:08:13.711Z,18.72
2022-07-31T21:10:42.128Z,18.88
2022-07-31T21:13:10.411Z,18.65
2022-07-31T21:15:42.580Z,18.74
2022-07-31T21:18:13.260Z,18.66
2022-07-31T21:20:51.040Z,18.70
2022-07-31T21:23:22.207Z,18.77
2022-07-31T21:25:50.832Z,18.72
2022-07-31T21:28:19.413Z,18.68
2022-07-31T21:30:47.818Z,18.85
2022-07-31T21:33:16.255Z,18.87
2022-07-31T21:35:46.404Z,18.84
2022-07-31T21:38:15.805Z,19.01
2022-07-31T21:40:44.563Z,18.83
2022-07-31T21:43:16.816Z,18.92
2022-07-31T21:45:54.772Z,18.97
2022-07-31T21:48:25.303Z,18.95
2022-07-31T21:50:55.946Z,18.87
2022-07-31T21:53:24.760Z,18.86
2022-07-31T21:55:53.092Z,19.02
2022-07-31T21:58:21.146Z,19.06
2022-07-31T22:00:49.565Z,19.13
2022-07-31T22:03:17.559Z,19.18
2022-07-31T22:06:02.805Z,19.16
2022-07-31T22:08:32.168Z,19.18
2022-07-31T22:11:00.093Z,19.17
2022-07-31T22:13:28.116Z,19.07
2022-07-31T22:16:00.678Z,18.98
2022-07-31T22:18:29.664Z,18.95
2022-07-31T22:20:58.129Z,19.01
2022-07-31T22:23:28.438Z,18.91
2022-07-31T22:25:58.171Z,18.92
2022-07-31T22:28:26.955Z,18.86
2022-07-31T22:30:55.731Z,18.90
2022-07-31T22:33:24.217Z,18.78
2022-07-31T22:36:00.337Z,19.02
2022-07-31T22:38:30.233Z,18.91
2022-07-31T22:41:00.329Z,18.96
2022-07-31T22:44:13.707Z,19.18
2022-07-31T22:46:16.912Z,19.09
2022-07-31T22:48:46.776Z,19.04
2022-07-31T22:51:15.646Z,19.08
2022-07-31T22:53:44.210Z,18.98
2022-07-31T22:56:13.610Z,18.83
2022-07-31T22:58:41.529Z,18.84
2022-07-31T23:01:09.455Z,18.95
2022-07-31T23:03:37.426Z,18.80
2022-07-31T23:06:31.666Z,18.81
2022-07-31T23:08:55.132Z,18.82
2022-07-31T23:11:24.885Z,18.96
2022-07-31T23:13:53.001Z,18.91
2022-07-31T23:16:21.357Z,18.90
2022-07-31T23:18:49.426Z,18.96
2022-07-31T23:21:17.424Z,19.02
2022-07-31T23:23:48.535Z,19.13
2022-07-31T23:26:18.442Z,19.04
2022-07-31T23:28:47.917Z,19.15
2022-07-31T23:31:15.987Z,18.94
2022-07-31T23:33:44.459Z,18.89
2022-07-31T23:36:12.771Z,19.03
2022-07-31T23:38:40.998Z,18.84
2022-07-31T23:41:09.586Z,18.90
2022-07-31T23:43:36.686Z,19.01
2022-07-31T23:46:06.574Z,18.86
2022-07-31T23:48:35.971Z,18.93
2022-07-31T23:51:04.090Z,18.83
2022-07-31T23:53:32.058Z,19.10
2022-07-31T23:56:00.021Z,18.88
2022-07-31T23:58:27.933Z,18.70
